Terminal Aerodrome Forecast
Issued by NWS

Home | Current Version | Previous Version | Text Only | Print | Product List | Glossary On
Versions: 1 2 3 4 5 6 7 8 9 10 11 12 13 14 15 16 17 18 19 20 21 22 23 24 25 26 27 28 29
000
FTUS43 KMKX 302322
TAFENW
TAF
KENW 302322Z 0100/0124 05014KT P6SM -SHRA OVC003
     FM010300 06013KT 2SM SHRA BR OVC003
     FM010600 09008KT 1/2SM -SHRA FG OVC003
     FM010800 16008KT 1/4SM FG OVC003
     FM011000 19008KT 1/2SM FG OVC003
     FM011200 20010KT 1SM BR VCSH OVC015
     FM011400 19012KT P6SM VCSH OVC025
     FM011700 20015G24KT P6SM VCSH BKN045
     FM011900 21017G27KT 5SM -SHRA BKN015=

USA.gov is the U.S. government's official web portal to all federal, state and local government web resources and services.